createdAt,value
2019-01-31T00:01:23.649Z,9.13
2019-01-31T00:04:12.566Z,7.85
2019-01-31T00:07:01.232Z,8.05
2019-01-31T00:10:00.334Z,7.85
2019-01-31T00:13:02.937Z,9.40
2019-01-31T00:15:48.687Z,8.85
2019-01-31T00:18:42.109Z,10.23
2019-01-31T00:21:24.811Z,9.13
2019-01-31T00:24:08.126Z,8.23
2019-01-31T00:26:48.101Z,9.45
2019-01-31T00:29:33.846Z,9.33
2019-01-31T00:32:25.436Z,8.30
2019-01-31T00:35:36.691Z,8.68
2019-01-31T00:38:25.607Z,8.70
2019-01-31T00:41:35.758Z,7.85
2019-01-31T00:44:34.680Z,8.05
2019-01-31T00:47:29.193Z,9.10
2019-01-31T00:50:17.851Z,8.73
2019-01-31T00:53:15.571Z,7.83
2019-01-31T00:56:13.651Z,7.62
2019-01-31T00:59:14.062Z,7.85
2019-01-31T01:02:19.326Z,7.62
2019-01-31T01:05:26.233Z,7.37
2019-01-31T01:08:18.550Z,7.05
2019-01-31T01:11:07.330Z,6.90
2019-01-31T01:14:11.244Z,6.80
2019-01-31T01:16:59.456Z,6.87
2019-01-31T01:19:42.471Z,7.22
2019-01-31T01:22:31.423Z,7.08
2019-01-31T01:25:23.104Z,5.75
2019-01-31T01:27:59.932Z,6.22
2019-01-31T01:30:48.013Z,5.62
2019-01-31T01:33:49.031Z,6.08
2019-01-31T01:36:34.562Z,5.83
2019-01-31T01:39:18.954Z,5.75
2019-01-31T01:42:24.800Z,5.42
2019-01-31T01:45:13.760Z,6.45
2019-01-31T01:47:48.291Z,5.83
2019-01-31T01:50:22.244Z,5.75
2019-01-31T01:53:02.082Z,6.10
2019-01-31T01:55:45.371Z,6.45
2019-01-31T01:58:49.431Z,5.67
2019-01-31T02:02:03.591Z,5.55
2019-01-31T02:04:43.318Z,6.12
2019-01-31T02:07:35.353Z,7.17
2019-01-31T02:10:27.358Z,6.97
2019-01-31T02:13:19.227Z,6.30
2019-01-31T02:16:09.975Z,6.55
2019-01-31T02:18:46.510Z,5.62
2019-01-31T02:21:23.263Z,5.97
2019-01-31T02:24:13.918Z,6.35
2019-01-31T02:27:10.463Z,5.97
2019-01-31T02:30:08.043Z,6.28
2019-01-31T02:33:14.179Z,4.83
2019-01-31T02:35:59.595Z,5.67
2019-01-31T02:38:48.388Z,5.22
2019-01-31T02:41:28.016Z,5.45
2019-01-31T02:44:29.058Z,5.53
2019-01-31T02:47:12.043Z,5.75
2019-01-31T02:49:55.258Z,5.95
2019-01-31T02:53:03.334Z,5.90
2019-01-31T02:56:12.411Z,5.50
2019-01-31T02:59:01.271Z,5.90
2019-01-31T03:01:58.578Z,6.25
2019-01-31T03:04:35.215Z,5.75
2019-01-31T03:07:59.697Z,5.65
2019-01-31T03:10:39.328Z,6.45
2019-01-31T03:13:27.533Z,6.00
2019-01-31T03:16:10.419Z,5.47
2019-01-31T03:18:53.445Z,5.80
2019-01-31T03:21:42.308Z,5.28
2019-01-31T03:24:30.394Z,6.00
2019-01-31T03:27:28.190Z,5.45
2019-01-31T03:30:24.583Z,6.30
2019-01-31T03:33:13.464Z,5.53
2019-01-31T03:36:19.080Z,4.95
2019-01-31T03:39:10.905Z,5.83
2019-01-31T03:41:56.409Z,5.90
2019-01-31T03:44:33.384Z,5.95
2019-01-31T03:47:23.801Z,5.80
2019-01-31T03:50:07.117Z,5.60
2019-01-31T03:52:52.472Z,6.05
2019-01-31T03:55:29.537Z,5.58
2019-01-31T03:58:33.250Z,6.20
2019-01-31T04:01:25.090Z,5.50
2019-01-31T04:04:05.230Z,5.35
2019-01-31T04:06:34.303Z,5.35
2019-01-31T04:09:04.997Z,5.30
2019-01-31T04:11:34.116Z,5.45
2019-01-31T04:14:03.188Z,5.70
2019-01-31T04:16:32.303Z,5.62
2019-01-31T04:19:01.425Z,5.25
2019-01-31T04:21:30.845Z,6.22
2019-01-31T04:23:59.896Z,6.58
2019-01-31T04:26:29.304Z,6.67
2019-01-31T04:28:58.425Z,5.97
2019-01-31T04:31:27.483Z,5.85
2019-01-31T04:33:56.622Z,5.85
2019-01-31T04:36:25.988Z,6.28
2019-01-31T04:38:55.494Z,6.08
2019-01-31T04:41:24.614Z,6.33
2019-01-31T04:43:53.684Z,6.40
2019-01-31T04:46:22.748Z,7.45
2019-01-31T04:48:51.860Z,6.97
2019-01-31T04:51:21.275Z,6.30
2019-01-31T04:53:50.425Z,6.58
2019-01-31T04:56:19.560Z,6.33
2019-01-31T04:58:48.655Z,6.75
2019-01-31T05:01:17.767Z,6.10
2019-01-31T05:03:47.166Z,7.08
2019-01-31T05:06:19.539Z,7.33
2019-01-31T05:08:48.635Z,6.45
2019-01-31T05:11:17.750Z,6.22
2019-01-31T05:13:46.846Z,6.25
2019-01-31T05:16:15.923Z,6.12
2019-01-31T05:18:45.031Z,6.70
2019-01-31T05:21:14.413Z,8.15
2019-01-31T05:23:44.418Z,7.25
2019-01-31T05:26:13.588Z,8.33
2019-01-31T05:28:42.914Z,8.15
2019-01-31T05:31:12.316Z,10.28
2019-01-31T05:33:41.715Z,12.73
2019-01-31T05:36:10.817Z,12.47
2019-01-31T05:38:39.897Z,10.72
2019-01-31T05:41:09.335Z,9.60
2019-01-31T05:43:38.408Z,8.83
2019-01-31T05:46:07.475Z,8.45
2019-01-31T05:48:36.675Z,8.40
2019-01-31T05:51:05.746Z,7.85
2019-01-31T05:53:35.110Z,8.55
2019-01-31T05:56:05.021Z,7.65
2019-01-31T05:58:34.808Z,7.03
2019-01-31T06:01:03.933Z,7.37
2019-01-31T06:03:33.329Z,7.50
2019-01-31T06:06:02.733Z,7.78
2019-01-31T06:08:31.825Z,7.70
2019-01-31T06:11:07.485Z,7.20
2019-01-31T06:13:31.709Z,7.60
2019-01-31T06:16:01.054Z,7.40
2019-01-31T06:18:30.176Z,7.83
2019-01-31T06:20:59.562Z,7.30
2019-01-31T06:23:28.973Z,7.28
2019-01-31T06:25:58.089Z,7.55
2019-01-31T06:28:27.484Z,7.05
2019-01-31T06:30:56.552Z,7.15
2019-01-31T06:33:28.391Z,7.12
2019-01-31T06:35:56.479Z,7.33
2019-01-31T06:38:25.557Z,6.83
2019-01-31T06:40:54.702Z,7.58
2019-01-31T06:43:23.767Z,6.08
2019-01-31T06:45:56.099Z,6.78
2019-01-31T06:48:24.315Z,6.67
2019-01-31T06:50:53.407Z,6.47
2019-01-31T06:53:22.480Z,6.72
2019-01-31T06:55:51.598Z,6.37
2019-01-31T06:58:21.003Z,6.62
2019-01-31T07:00:50.439Z,7.40
2019-01-31T07:03:19.548Z,7.33
2019-01-31T07:05:48.899Z,7.08
2019-01-31T07:08:17.965Z,7.55
2019-01-31T07:10:47.396Z,7.83
2019-01-31T07:13:16.462Z,6.85
2019-01-31T07:15:45.544Z,6.95
2019-01-31T07:18:14.718Z,7.28
2019-01-31T07:20:43.790Z,7.83
2019-01-31T07:23:13.807Z,7.22
2019-01-31T07:25:43.229Z,7.60
2019-01-31T07:28:13.813Z,8.50
2019-01-31T07:30:42.859Z,8.73
2019-01-31T07:33:11.946Z,8.83
2019-01-31T07:35:41.356Z,8.10
2019-01-31T07:38:10.420Z,8.38
2019-01-31T07:40:39.559Z,8.33
2019-01-31T07:43:08.625Z,9.25
2019-01-31T07:45:38.040Z,8.20
2019-01-31T07:48:07.425Z,9.63
2019-01-31T07:50:36.460Z,8.53
2019-01-31T07:53:05.548Z,8.70
2019-01-31T07:55:34.660Z,8.70
2019-01-31T07:58:04.027Z,8.67
2019-01-31T08:00:33.062Z,8.75
2019-01-31T08:03:02.503Z,9.20
2019-01-31T08:05:31.600Z,8.57
2019-01-31T08:08:00.661Z,9.83
2019-01-31T08:10:39.919Z,9.18
2019-01-31T08:13:08.977Z,9.17
2019-01-31T08:15:38.447Z,10.05
2019-01-31T08:18:07.589Z,10.67
2019-01-31T08:20:36.913Z,10.60
2019-01-31T08:23:06.313Z,9.83
2019-01-31T08:25:35.718Z,9.47
2019-01-31T08:28:05.563Z,9.60
2019-01-31T08:30:39.292Z,9.63
2019-01-31T08:33:08.633Z,9.93
2019-01-31T08:35:37.729Z,10.07
2019-01-31T08:38:06.804Z,11.12
2019-01-31T08:40:36.250Z,11.63
2019-01-31T08:43:05.462Z,11.20
2019-01-31T08:45:34.495Z,10.67
2019-01-31T08:48:03.612Z,10.90
2019-01-31T08:50:32.911Z,10.80
2019-01-31T08:53:01.982Z,11.70
2019-01-31T08:55:31.098Z,12.00
2019-01-31T08:58:00.365Z,12.35
2019-01-31T09:00:31.498Z,11.57
2019-01-31T09:03:00.565Z,14.70
2019-01-31T09:05:29.636Z,17.13
2019-01-31T09:07:58.678Z,17.93
2019-01-31T09:10:38.307Z,17.17
2019-01-31T09:13:10.181Z,13.75
2019-01-31T09:15:39.547Z,13.73
2019-01-31T09:18:08.664Z,12.70
2019-01-31T09:20:48.597Z,12.90
2019-01-31T09:23:49.430Z,13.17
2019-01-31T09:26:38.423Z,13.87
2019-01-31T09:29:26.845Z,16.37
2019-01-31T09:32:23.329Z,16.63
2019-01-31T09:35:12.225Z,13.47
2019-01-31T09:38:25.358Z,13.50
2019-01-31T09:41:02.200Z,14.10
2019-01-31T09:44:04.953Z,13.20
2019-01-31T09:47:15.338Z,15.70
2019-01-31T09:50:07.480Z,13.73
2019-01-31T09:52:59.637Z,13.80
2019-01-31T09:55:55.986Z,13.60
2019-01-31T09:58:58.573Z,13.87
2019-01-31T10:02:01.273Z,14.90
2019-01-31T10:04:49.792Z,14.47
2019-01-31T10:07:30.066Z,16.73
2019-01-31T10:10:36.859Z,15.90
2019-01-31T10:13:35.926Z,16.33
2019-01-31T10:16:30.414Z,17.07
2019-01-31T10:19:23.297Z,17.97
2019-01-31T10:22:18.908Z,17.37
2019-01-31T10:25:04.069Z,13.67
2019-01-31T10:28:02.238Z,14.00
2019-01-31T10:30:59.715Z,14.27
2019-01-31T10:34:01.834Z,16.48
2019-01-31T10:36:41.836Z,16.67
2019-01-31T10:39:36.516Z,14.23
2019-01-31T10:42:32.966Z,16.37
2019-01-31T10:45:36.365Z,15.43
2019-01-31T10:48:27.753Z,13.17
2019-01-31T10:51:40.831Z,14.40
2019-01-31T10:54:20.305Z,13.20
2019-01-31T10:56:59.820Z,11.57
2019-01-31T10:59:51.925Z,10.63
2019-01-31T11:02:51.535Z,9.30
2019-01-31T11:05:53.354Z,9.38
2019-01-31T11:08:58.978Z,8.25
2019-01-31T11:11:38.720Z,8.50
2019-01-31T11:14:24.821Z,8.47
2019-01-31T11:17:13.041Z,7.83
2019-01-31T11:19:56.021Z,8.03
2019-01-31T11:22:42.101Z,8.27
2019-01-31T11:25:33.267Z,9.68
2019-01-31T11:28:19.005Z,9.80
2019-01-31T11:31:21.289Z,10.58
2019-01-31T11:34:04.438Z,10.90
2019-01-31T11:36:50.417Z,11.57
2019-01-31T11:39:33.048Z,11.53
2019-01-31T11:42:15.535Z,11.05
2019-01-31T11:45:25.655Z,10.63
2019-01-31T11:48:25.275Z,11.50
2019-01-31T11:51:15.695Z,11.80
2019-01-31T11:54:08.755Z,11.13
2019-01-31T11:57:06.488Z,11.22
2019-01-31T11:59:35.838Z,11.73
2019-01-31T12:02:05.562Z,11.93
2019-01-31T12:04:34.939Z,12.63
2019-01-31T12:07:04.052Z,11.90
2019-01-31T12:09:33.132Z,12.18
2019-01-31T12:12:02.153Z,12.30
2019-01-31T12:14:31.653Z,12.88
2019-01-31T12:17:00.719Z,13.35
2019-01-31T12:19:29.774Z,12.75
2019-01-31T12:21:58.878Z,14.07
2019-01-31T12:24:27.979Z,12.07
2019-01-31T12:26:57.308Z,10.32
2019-01-31T12:29:26.426Z,10.28
2019-01-31T12:31:55.839Z,10.68
2019-01-31T12:34:24.929Z,10.10
2019-01-31T12:36:54.042Z,10.00
2019-01-31T12:39:23.136Z,11.22
2019-01-31T12:41:52.195Z,9.95
2019-01-31T12:44:21.300Z,11.15
2019-01-31T12:46:50.360Z,9.93
2019-01-31T12:49:19.480Z,11.03
2019-01-31T12:51:48.882Z,9.50
2019-01-31T12:54:18.382Z,9.30
2019-01-31T12:56:47.430Z,9.73
2019-01-31T12:59:16.874Z,9.73
2019-01-31T13:01:45.965Z,8.93
2019-01-31T13:04:14.985Z,9.13
2019-01-31T13:06:44.089Z,8.20
2019-01-31T13:09:13.158Z,7.95
2019-01-31T13:11:42.584Z,8.28
2019-01-31T13:14:11.955Z,8.13
2019-01-31T13:16:41.019Z,7.90
2019-01-31T13:19:10.072Z,7.58
2019-01-31T13:21:39.448Z,7.92
2019-01-31T13:24:10.968Z,6.78
2019-01-31T13:26:40.057Z,7.28
2019-01-31T13:29:09.159Z,7.35
2019-01-31T13:31:38.225Z,6.85
2019-01-31T13:34:07.326Z,7.08
2019-01-31T13:36:36.435Z,7.40
2019-01-31T13:39:09.432Z,6.20
2019-01-31T13:41:38.485Z,6.75
2019-01-31T13:44:07.621Z,6.90
2019-01-31T13:46:36.968Z,7.08
2019-01-31T13:49:06.394Z,7.42
2019-01-31T13:51:35.534Z,6.92
2019-01-31T13:54:04.793Z,7.22
2019-01-31T13:56:44.889Z,7.37
2019-01-31T13:59:04.710Z,7.12
2019-01-31T14:01:33.812Z,7.80
2019-01-31T14:04:02.834Z,7.40
2019-01-31T14:06:31.964Z,7.45
2019-01-31T14:09:01.049Z,7.78
2019-01-31T14:11:30.384Z,7.08
2019-01-31T14:14:08.816Z,8.23
2019-01-31T14:16:30.729Z,9.45
2019-01-31T14:18:59.791Z,9.00
2019-01-31T14:21:29.164Z,8.98
2019-01-31T14:23:58.502Z,8.38
2019-01-31T14:26:27.617Z,10.35
2019-01-31T14:28:56.726Z,12.55
2019-01-31T14:31:26.113Z,16.12
2019-01-31T14:33:55.197Z,11.83
2019-01-31T14:36:24.378Z,19.40
2019-01-31T14:38:53.471Z,13.62
2019-01-31T14:41:22.704Z,14.65
2019-01-31T14:43:52.097Z,12.28
2019-01-31T14:46:21.165Z,15.50
2019-01-31T14:48:50.289Z,21.85
2019-01-31T14:51:19.402Z,27.17
2019-01-31T14:53:48.466Z,8.70
2019-01-31T14:56:17.526Z,10.10
2019-01-31T14:58:46.964Z,9.45
2019-01-31T15:01:16.404Z,8.85
2019-01-31T15:03:45.467Z,9.20
2019-01-31T15:06:14.871Z,8.73
2019-01-31T15:08:49.305Z,8.33
2019-01-31T15:11:18.393Z,8.65
2019-01-31T15:13:47.514Z,7.70
2019-01-31T15:16:16.574Z,8.00
2019-01-31T15:18:45.675Z,7.70
2019-01-31T15:21:14.770Z,7.45
2019-01-31T15:23:44.197Z,8.73
2019-01-31T15:26:13.295Z,8.05
2019-01-31T15:28:42.374Z,9.00
2019-01-31T15:31:11.772Z,10.03
2019-01-31T15:33:40.857Z,9.23
2019-01-31T15:36:09.975Z,9.55
2019-01-31T15:38:39.027Z,9.78
2019-01-31T15:41:08.142Z,10.53
2019-01-31T15:43:37.507Z,9.80
2019-01-31T15:46:06.568Z,10.43
2019-01-31T15:48:35.948Z,11.60
2019-01-31T15:51:05.099Z,11.33
2019-01-31T15:53:34.630Z,11.07
2019-01-31T15:56:03.696Z,10.35
2019-01-31T15:58:32.865Z,10.43
2019-01-31T16:01:01.895Z,10.30
2019-01-31T16:03:30.934Z,9.93
2019-01-31T16:06:00.262Z,10.53
2019-01-31T16:08:29.389Z,11.07
2019-01-31T16:10:58.452Z,10.00
2019-01-31T16:13:27.612Z,10.10
2019-01-31T16:15:56.667Z,11.00
2019-01-31T16:18:25.849Z,10.53
2019-01-31T16:20:55.038Z,10.67
2019-01-31T16:23:24.397Z,12.40
2019-01-31T16:25:53.502Z,12.87
2019-01-31T16:28:22.632Z,13.10
2019-01-31T16:30:51.711Z,12.87
2019-01-31T16:33:20.809Z,11.80
2019-01-31T16:35:50.180Z,11.80
2019-01-31T16:38:19.504Z,10.73
2019-01-31T16:40:48.542Z,9.37
2019-01-31T16:43:17.662Z,9.00
2019-01-31T16:45:46.795Z,8.70
2019-01-31T16:48:15.864Z,8.27
2019-01-31T16:50:45.204Z,8.10
2019-01-31T16:53:14.215Z,9.23
2019-01-31T16:55:43.321Z,9.20
2019-01-31T16:58:12.411Z,12.13
2019-01-31T17:00:41.474Z,11.40
2019-01-31T17:03:13.013Z,10.23
2019-01-31T17:05:41.685Z,11.30
2019-01-31T17:08:10.784Z,10.33
2019-01-31T17:10:39.851Z,9.10
2019-01-31T17:13:09.308Z,9.30
2019-01-31T17:15:38.374Z,9.05
2019-01-31T17:18:07.474Z,9.23
2019-01-31T17:20:40.995Z,10.15
2019-01-31T17:23:10.229Z,10.70
2019-01-31T17:25:39.580Z,11.45
2019-01-31T17:28:09.093Z,11.08
2019-01-31T17:30:38.164Z,10.10
2019-01-31T17:33:10.450Z,10.23
2019-01-31T17:35:39.854Z,11.08
2019-01-31T17:38:08.956Z,12.55
2019-01-31T17:40:38.973Z,11.65
2019-01-31T17:43:08.754Z,11.68
2019-01-31T17:45:37.864Z,13.70
2019-01-31T17:48:07.657Z,13.43
2019-01-31T17:50:37.088Z,15.98
2019-01-31T17:53:06.189Z,16.37
2019-01-31T17:55:35.260Z,13.05
2019-01-31T17:58:04.697Z,12.68
2019-01-31T18:00:42.735Z,12.07
2019-01-31T18:03:12.012Z,11.38
2019-01-31T18:05:41.388Z,10.82
2019-01-31T18:08:10.460Z,12.05
2019-01-31T18:10:39.581Z,12.18
2019-01-31T18:13:08.647Z,11.65
2019-01-31T18:15:42.149Z,11.45
2019-01-31T18:18:09.034Z,9.93
2019-01-31T18:20:38.108Z,11.50
2019-01-31T18:23:07.820Z,10.75
2019-01-31T18:25:36.929Z,9.90
2019-01-31T18:28:06.003Z,9.70
2019-01-31T18:30:37.632Z,10.95
2019-01-31T18:33:07.092Z,10.43
2019-01-31T18:35:36.161Z,9.90
2019-01-31T18:38:05.647Z,9.40
2019-01-31T18:40:36.122Z,9.45
2019-01-31T18:43:05.263Z,11.08
2019-01-31T18:45:35.977Z,12.15
2019-01-31T18:48:06.886Z,12.58
2019-01-31T18:50:39.896Z,13.00
2019-01-31T18:53:09.042Z,12.55
2019-01-31T18:55:38.117Z,11.57
2019-01-31T18:58:07.691Z,12.13
2019-01-31T19:00:47.113Z,12.60
2019-01-31T19:03:16.275Z,12.70
2019-01-31T19:05:45.662Z,11.65
2019-01-31T19:08:14.731Z,11.90
2019-01-31T19:10:44.053Z,13.00
2019-01-31T19:13:13.439Z,15.53
2019-01-31T19:15:42.774Z,18.23
2019-01-31T19:18:12.371Z,19.75
2019-01-31T19:20:41.444Z,17.50
2019-01-31T19:23:10.910Z,17.67
2019-01-31T19:25:40.018Z,15.75
2019-01-31T19:28:09.091Z,18.80
2019-01-31T19:30:40.520Z,28.50
2019-01-31T19:33:09.658Z,37.17
2019-01-31T19:35:38.748Z,28.00
2019-01-31T19:38:08.155Z,21.00
2019-01-31T19:40:43.865Z,20.30
2019-01-31T19:43:12.967Z,19.27
2019-01-31T19:45:47.137Z,18.45
2019-01-31T19:48:18.960Z,21.15
2019-01-31T19:50:48.362Z,20.45
2019-01-31T19:53:17.463Z,19.82
2019-01-31T19:55:46.632Z,18.67
2019-01-31T19:58:15.704Z,18.65
2019-01-31T20:00:44.771Z,19.07
2019-01-31T20:03:14.180Z,19.65
2019-01-31T20:05:43.252Z,18.55
2019-01-31T20:08:12.322Z,18.40
2019-01-31T20:10:41.447Z,15.80
2019-01-31T20:13:10.832Z,16.07
2019-01-31T20:15:39.912Z,16.82
2019-01-31T20:18:09.207Z,15.78
2019-01-31T20:20:38.310Z,16.93
2019-01-31T20:23:07.710Z,15.53
2019-01-31T20:25:36.836Z,15.72
2019-01-31T20:28:06.286Z,16.57
2019-01-31T20:30:35.389Z,14.95
2019-01-31T20:33:04.793Z,15.70
2019-01-31T20:35:33.922Z,15.28
2019-01-31T20:38:03.025Z,17.37
2019-01-31T20:40:36.389Z,16.48
2019-01-31T20:43:06.329Z,17.02
2019-01-31T20:45:35.701Z,16.93
2019-01-31T20:48:05.830Z,15.63
2019-01-31T20:50:38.193Z,16.15
2019-01-31T20:53:07.831Z,15.23
2019-01-31T20:55:36.957Z,15.18
2019-01-31T20:58:06.170Z,14.83
2019-01-31T21:00:39.413Z,14.58
2019-01-31T21:03:09.730Z,15.10
2019-01-31T21:05:39.034Z,15.03
2019-01-31T21:08:08.898Z,14.65
2019-01-31T21:10:38.332Z,12.82
2019-01-31T21:13:07.536Z,13.20
2019-01-31T21:15:36.860Z,12.90
2019-01-31T21:18:06.588Z,12.43
2019-01-31T21:20:35.656Z,12.10
2019-01-31T21:23:05.659Z,10.90
2019-01-31T21:25:34.895Z,10.85
2019-01-31T21:28:03.931Z,8.40
2019-01-31T21:30:38.991Z,9.40
2019-01-31T21:33:08.111Z,10.08
2019-01-31T21:35:37.195Z,10.32
2019-01-31T21:38:06.293Z,10.50
2019-01-31T21:40:36.163Z,9.58
2019-01-31T21:43:05.875Z,8.80
2019-01-31T21:45:34.933Z,9.48
2019-01-31T21:48:05.361Z,7.70
2019-01-31T21:50:34.422Z,7.58
2019-01-31T21:53:03.489Z,8.88
2019-01-31T21:55:32.599Z,5.25
2019-01-31T21:58:02.011Z,7.92
2019-01-31T22:00:35.514Z,8.80
2019-01-31T22:03:05.776Z,7.85
2019-01-31T22:05:35.229Z,7.58
2019-01-31T22:08:04.608Z,7.62
2019-01-31T22:10:33.721Z,8.30
2019-01-31T22:13:03.359Z,9.08
2019-01-31T22:15:35.274Z,9.55
2019-01-31T22:18:05.711Z,9.98
2019-01-31T22:20:34.792Z,8.83
2019-01-31T22:23:07.497Z,7.97
2019-01-31T22:25:36.605Z,9.00
2019-01-31T22:28:05.672Z,9.30
2019-01-31T22:30:36.647Z,9.03
2019-01-31T22:33:06.797Z,9.43
2019-01-31T22:35:36.131Z,9.13
2019-01-31T22:38:05.340Z,7.62
2019-01-31T22:40:34.462Z,8.63
2019-01-31T22:43:03.519Z,8.70
2019-01-31T22:45:32.649Z,5.85
2019-01-31T22:48:01.774Z,8.75
2019-01-31T22:50:30.842Z,8.78
2019-01-31T22:52:59.930Z,9.00
2019-01-31T22:55:29.089Z,8.08
2019-01-31T22:57:58.398Z,8.28
2019-01-31T23:00:45.513Z,8.98
2019-01-31T23:03:14.584Z,7.95
2019-01-31T23:05:43.667Z,7.95
2019-01-31T23:08:12.760Z,7.70
2019-01-31T23:10:41.852Z,6.45
2019-01-31T23:13:11.640Z,7.00
2019-01-31T23:15:41.013Z,7.70
2019-01-31T23:18:10.251Z,7.47
2019-01-31T23:20:39.604Z,7.00
2019-01-31T23:23:08.755Z,7.53
2019-01-31T23:25:40.189Z,6.33
2019-01-31T23:28:08.946Z,7.40
2019-01-31T23:30:38.098Z,6.30
2019-01-31T23:33:07.418Z,5.08
2019-01-31T23:35:37.506Z,6.78
2019-01-31T23:38:06.653Z,5.78
2019-01-31T23:40:36.078Z,4.55
2019-01-31T23:43:06.212Z,7.20
2019-01-31T23:45:35.361Z,6.25
2019-01-31T23:48:04.795Z,6.85
2019-01-31T23:50:33.862Z,7.05
2019-01-31T23:53:03.225Z,7.30
2019-01-31T23:55:32.285Z,0.78
2019-01-31T23:58:01.371Z,7.85
